Station: EBLB - 18/06/2021 21:25Z (il y a 15 minutes)
EBLB 182125Z AUTO 24005KT 9999 NCD 21/15 Q1015 BLU
Vent du 240º - 5 kt
Visibilité > 10 km
Pas de nuages détectés
Température: +21ºC - Point de rosée: +15ºC - QNH: 1015 hPa
Code couleur militaire: BLU (conditions VMC)